createdAt,value
2022-12-01T18:23:06.112Z,8.03326
2022-12-01T18:28:07.244Z,117.52113
2022-12-01T18:33:08.294Z,135.30435
2022-12-01T18:38:09.279Z,142.07074
2022-12-01T18:43:10.224Z,145.96721
2022-12-01T18:48:11.107Z,148.65116
2022-12-01T18:53:12.048Z,150.71141
2022-12-01T18:58:12.938Z,152.81356
2022-12-01T19:03:13.821Z,154.23891
2022-12-01T19:08:14.783Z,155.68385
2022-12-01T19:13:15.753Z,157.88889
2022-12-01T19:18:16.653Z,158.63415
2022-12-01T19:23:17.520Z,159.38462
2022-12-01T19:28:18.401Z,160.14035
2022-12-01T19:33:19.334Z,160.14035
2022-12-01T19:38:20.219Z,160.14035
2022-12-01T19:43:21.102Z,160.90141
2022-12-01T19:48:22.032Z,162.43972
2022-12-01T19:53:22.953Z,161.66784
2022-12-01T19:58:23.875Z,161.66784
2022-12-01T20:03:24.833Z,161.66784
2022-12-01T20:08:25.791Z,162.43972
2022-12-01T20:13:26.733Z,163.21708
2022-12-01T20:18:27.596Z,163.21708
2022-12-01T20:23:28.512Z,163.21708
2022-12-01T20:28:29.709Z,163.21708
2022-12-01T20:33:30.901Z,163.21708
2022-12-01T20:38:31.792Z,163.21708
2022-12-01T20:43:32.705Z,163.21708
2022-12-01T20:48:33.640Z,164.0
2022-12-01T20:53:34.585Z,164.0
2022-12-01T20:58:37.790Z,163.21708
2022-12-01T21:03:39.076Z,163.21708
2022-12-01T21:08:40.213Z,164.0
2022-12-01T21:13:41.238Z,165.58273
2022-12-01T21:18:42.277Z,165.58273
2022-12-01T21:23:43.281Z,165.58273
2022-12-01T21:28:44.203Z,167.18841
2022-12-01T21:33:45.136Z,167.18841
2022-12-01T21:38:46.055Z,167.18841
2022-12-01T21:43:47.008Z,167.18841
2022-12-01T21:48:47.989Z,167.18841
2022-12-01T21:53:48.896Z,168.0
2022-12-01T21:58:49.812Z,168.0
2022-12-01T22:03:50.780Z,168.81752
2022-12-01T22:08:51.707Z,169.64103
2022-12-01T22:13:52.648Z,169.64103
2022-12-01T22:18:53.561Z,170.47059
2022-12-01T22:23:54.558Z,169.64103
2022-12-01T22:28:55.468Z,170.47059
2022-12-01T22:34:00.121Z,170.47059
2022-12-01T22:39:03.788Z,171.30627
2022-12-01T22:44:04.753Z,171.30627
2022-12-01T22:49:05.826Z,172.14815
2022-12-01T22:54:06.720Z,172.99628
2022-12-01T22:59:07.606Z,172.99628
2022-12-01T23:04:08.509Z,173.85075
2022-12-01T23:09:09.434Z,173.85075
2022-12-01T23:14:10.384Z,172.99628
2022-12-01T23:19:11.337Z,173.85075
2022-12-01T23:24:12.245Z,172.99628
2022-12-01T23:29:13.153Z,173.85075
2022-12-01T23:34:14.036Z,172.99628
2022-12-01T23:39:14.970Z,172.99628
2022-12-01T23:44:15.916Z,173.85075
2022-12-01T23:49:16.826Z,173.85075
2022-12-01T23:54:17.748Z,172.99628
2022-12-01T23:59:18.699Z,173.85075
